This is the latest recevied weather packets stored in our database for station/object SV2RIM-2. If no packets are shown the sender has not sent any weather packets the latest 10 day(s).
| Time | Temp. | Humidity | Pressure | Rain* | Wind** | Luminosity | Snow |
|---|---|---|---|---|---|---|---|
| 1776974719 | 8.89° C | 48% | 1013.7 hPa | 1.78 mm | - | - | - |
| 1776974119 | 8.89° C | 48% | 1013.7 hPa | 1.78 mm | - | - | - |
| 1776973519 | 8.89° C | 48% | 1013.6 hPa | 2.03 mm | - | - | - |
| 1776972919 | 9.44° C | 47% | 1013.7 hPa | 2.03 mm | - | - | - |
| 1776972319 | 9.44° C | 47% | 1013.7 hPa | 2.03 mm | - | - | - |
| 1776971719 | 9.44° C | 47% | 1013.6 hPa | 2.29 mm | - | - | - |
| 1776971119 | 9.44° C | 47% | 1013.5 hPa | 2.29 mm | - | - | - |
| 1776970519 | 9.44° C | 47% | 1013.4 hPa | 2.54 mm | - | - | - |
| 1776969919 | 10° C | 46% | 1013.3 hPa | 2.54 mm | - | - | - |
| 1776969319 | 10° C | 46% | 1013.2 hPa | 3.05 mm | - | - | - |
| 1776968719 | 10° C | 46% | 1013 hPa | 3.3 mm | - | - | - |
| 1776968119 | 10° C | 46% | 1013 hPa | 3.56 mm | - | - | - |
| 1776967519 | 10.56° C | 45% | 1012.8 hPa | 3.81 mm | - | - | - |
| 1776966919 | 11.11° C | 45% | 1012.7 hPa | 3.81 mm | - | - | - |
| 1776966319 | 11.11° C | 45% | 1012.5 hPa | 4.32 mm | - | - | - |
| 1776965719 | 11.67° C | 44% | 1012.4 hPa | 4.57 mm | - | - | - |
| 1776965119 | 12.22° C | 44% | 1012.3 hPa | 4.57 mm | - | - | - |
| 1776964519 | 12.22° C | 45% | 1012.2 hPa | 4.83 mm | - | - | - |
| 1776963919 | 13.33° C | 44% | 1012.1 hPa | 5.08 mm | - | - | - |
| 1776963319 | 14.44° C | 46% | 1012 hPa | 5.59 mm | - | - | - |
| 1776962719 | 17.22° C | 42% | 1011.9 hPa | 5.59 mm | - | - | - |
| 1776962119 | 18.89° C | 38% | 1012 hPa | 5.84 mm | - | - | - |
| 1776961519 | 16.11° C | 45% | 1012 hPa | 6.1 mm | - | - | - |
| 1776960919 | 17.22° C | 47% | 1011.9 hPa | 6.6 mm | - | - | - |
| 1776960319 | 20° C | 43% | 1011.9 hPa | 6.86 mm | - | - | - |
* Rain latest 24 hours (hover to see other rain measurements)
** Current wind speed in m/s (hover to see current wind gust speed)